Time;durP1;ratioP1;P1;durP2;ratioP2;P2;SDS_P1;SDS_P2;PMS_P1;PMS_P2;Temp;Humidity;BMP_temperature;BMP_pressure;BME280_temperature;BME280_humidity;BME280_pressure;Samples;Min_cycle;Max_cycle;Signal;HPM_P1;HPM_P2
2022/03/24 00:01:46;;;;;;;57.28;37.03;;;;;;;6.92;62.16;102899.19;5045989;28;20514;-56
2022/03/24 00:04:11;;;;;;;55.35;37.30;;;;;;;6.79;61.44;102901.66;5031096;28;20041;-57
2022/03/24 00:06:37;;;;;;;54.85;37.60;;;;;;;6.88;61.31;102902.94;5030628;28;20037;-56
2022/03/24 00:09:03;;;;;;;52.53;35.88;;;;;;;6.97;62.05;102901.56;5029074;28;20033;-57
2022/03/24 00:11:29;;;;;;;52.40;35.35;;;;;;;6.90;62.09;102894.94;5030172;28;20065;-56
2022/03/24 00:13:54;;;;;;;54.63;36.05;;;;;;;6.86;62.14;102904.81;5030914;28;20048;-56
2022/03/24 00:16:20;;;;;;;53.85;34.38;;;;;;;6.71;61.57;102906.53;5029003;28;20025;-57
2022/03/24 00:18:46;;;;;;;55.58;35.72;;;;;;;6.73;62.38;102899.38;5030619;28;20029;-57
2022/03/24 00:21:11;;;;;;;50.85;34.28;;;;;;;6.71;62.47;102896.81;5030446;28;20429;-57
2022/03/24 00:23:37;;;;;;;55.78;34.88;;;;;;;6.58;64.68;102896.63;5031822;28;20060;-56
2022/03/24 00:26:03;;;;;;;51.22;34.05;;;;;;;6.67;64.36;102895.25;5039775;28;20022;-56
2022/03/24 00:28:29;;;;;;;49.25;34.08;;;;;;;6.65;65.30;102893.69;5032265;28;20128;-56
2022/03/24 00:30:54;;;;;;;49.95;34.55;;;;;;;6.59;64.55;102887.81;5029992;28;20029;-57
2022/03/24 00:33:19;;;;;;;44.55;30.52;;;;;;;6.57;64.80;102888.81;5025695;28;20026;-56
2022/03/24 00:35:44;;;;;;;48.97;30.58;;;;;;;6.51;64.38;102889.97;5023219;28;20053;-57
2022/03/24 00:38:10;;;;;;;48.05;30.50;;;;;;;6.46;63.71;102899.94;5030641;28;20112;-56
2022/03/24 00:40:35;;;;;;;48.65;30.55;;;;;;;6.35;63.97;102892.59;5030184;28;20030;-56
2022/03/24 00:43:01;;;;;;;49.03;32.38;;;;;;;6.19;64.16;102885.53;5031681;28;20057;-57
2022/03/24 00:45:27;;;;;;;47.83;32.38;;;;;;;6.20;63.30;102883.75;5033811;28;20100;-57
2022/03/24 00:47:52;;;;;;;46.92;30.73;;;;;;;6.18;64.17;102885.63;5033894;28;20121;-56
2022/03/24 00:50:18;;;;;;;48.63;30.77;;;;;;;5.93;65.22;102885.09;5034787;28;20472;-56
2022/03/24 00:52:45;;;;;;;47.60;30.83;;;;;;;5.88;65.56;102886.28;5032325;28;20056;-57
2022/03/24 00:55:17;;;;;;;45.55;30.83;;;;;;;5.78;64.98;102880.63;5034117;28;20064;-56
2022/03/24 00:57:44;;;;;;;48.60;33.08;;;;;;;5.77;65.12;102878.91;5033450;28;20021;-57
2022/03/24 01:00:15;;;;;;;49.22;32.10;;;;;;;5.73;65.80;102869.50;5034407;28;20045;-57
2022/03/24 01:02:41;;;;;;;49.75;32.88;;;;;;;5.75;66.37;102876.38;5033782;28;20101;-56
2022/03/24 01:05:07;;;;;;;49.95;33.70;;;;;;;5.78;64.85;102876.19;5034125;28;20703;-57
2022/03/24 01:07:33;;;;;;;48.05;33.22;;;;;;;5.82;65.18;102876.88;5033869;28;20091;-57
2022/03/24 01:09:59;;;;;;;49.92;34.20;;;;;;;5.84;64.56;102863.66;5032551;28;20037;-57
2022/03/24 01:12:24;;;;;;;56.22;33.08;;;;;;;5.91;65.33;102871.16;5033292;28;20107;-57
2022/03/24 01:14:49;;;;;;;51.22;31.35;;;;;;;5.91;64.79;102873.78;5033449;28;20090;-56
2022/03/24 01:17:16;;;;;;;44.38;30.30;;;;;;;5.46;64.61;102864.69;5033694;28;20029;-56
2022/03/24 01:19:42;;;;;;;51.97;32.58;;;;;;;5.44;64.94;102866.56;5032248;28;20424;-58
2022/03/24 01:22:07;;;;;;;48.08;32.42;;;;;;;5.35;66.70;102867.88;5032764;28;20029;-55
2022/03/24 01:24:36;;;;;;;54.00;32.72;;;;;;;5.37;66.61;102863.38;5033262;28;20026;-57
2022/03/24 01:27:01;;;;;;;53.15;33.85;;;;;;;5.37;66.04;102868.63;5033423;28;20022;-57
2022/03/24 01:29:26;;;;;;;45.95;32.33;;;;;;;5.33;66.06;102864.47;5031647;28;20169;-56
2022/03/24 01:31:52;;;;;;;51.03;33.35;;;;;;;5.42;65.85;102863.16;5033259;28;20041;-57
2022/03/24 01:34:17;;;;;;;51.17;32.78;;;;;;;5.52;65.87;102861.75;5032982;28;20491;-57
2022/03/24 01:36:43;;;;;;;54.55;33.60;;;;;;;5.54;67.49;102861.66;5033465;28;20018;-57
2022/03/24 01:39:08;;;;;;;50.55;32.97;;;;;;;5.51;67.23;102847.75;5033163;28;20365;-57
2022/03/24 01:41:34;;;;;;;53.85;33.53;;;;;;;5.43;66.87;102849.91;5033576;28;20022;-56
2022/03/24 01:44:00;;;;;;;49.97;32.60;;;;;;;5.28;66.83;102848.06;5032740;28;20030;-56
2022/03/24 01:46:25;;;;;;;51.42;33.00;;;;;;;5.15;67.12;102837.28;5030725;28;20034;-57
2022/03/24 01:48:50;;;;;;;53.27;33.67;;;;;;;5.14;66.50;102831.19;5033198;28;20025;-56
2022/03/24 01:51:16;;;;;;;54.63;34.50;;;;;;;5.15;67.31;102840.78;5033026;28;20029;-56
2022/03/24 01:53:41;;;;;;;56.92;34.03;;;;;;;5.21;67.23;102839.63;5033151;28;20528;-56
2022/03/24 01:56:07;;;;;;;52.90;33.90;;;;;;;5.20;67.21;102838.78;5032745;28;20029;-55
2022/03/24 01:58:36;;;;;;;60.50;34.60;;;;;;;5.21;67.13;102835.22;5031307;28;20044;-56
2022/03/24 02:01:36;;;;;;;56.30;34.70;;;;;;;5.24;66.26;102835.03;5031858;28;20712;-57
2022/03/24 02:04:05;;;;;;;51.20;34.67;;;;;;;5.17;66.66;102828.41;5029633;28;20033;-57
2022/03/24 02:06:32;;;;;;;54.28;34.47;;;;;;;5.24;67.28;102832.41;5031201;28;20694;-57
2022/03/24 02:09:01;;;;;;;46.60;30.17;;;;;;;5.23;65.22;102837.78;5032599;28;20038;-56
2022/03/24 02:11:27;;;;;;;49.50;33.30;;;;;;;4.84;67.30;102831.78;5032676;28;20033;-57
2022/03/24 02:13:54;;;;;;;61.07;34.43;;;;;;;4.81;68.12;102834.53;5031509;28;20049;-56
2022/03/24 02:16:20;;;;;;;56.03;35.27;;;;;;;4.80;67.28;102831.03;5030235;28;20661;-56
2022/03/24 02:18:46;;;;;;;56.00;34.77;;;;;;;4.69;68.00;102831.56;5032833;28;20033;-56
2022/03/24 02:21:15;;;;;;;57.27;34.23;;;;;;;4.80;67.63;102831.03;5031720;28;20037;-57
2022/03/24 02:23:44;;;;;;;52.73;34.03;;;;;;;4.82;68.22;102823.09;5032588;28;20038;-56
2022/03/24 02:26:10;;;;;;;51.40;33.53;;;;;;;4.85;68.47;102833.47;5030923;28;20042;-57
2022/03/24 02:28:36;;;;;;;53.23;34.97;;;;;;;4.74;68.72;102820.00;5031365;28;20484;-57
2022/03/24 02:31:03;;;;;;;54.63;35.73;;;;;;;4.73;68.15;102831.44;5032167;28;20034;-56
2022/03/24 02:33:28;;;;;;;63.87;36.87;;;;;;;4.71;68.14;102831.50;5030621;28;20041;-56
2022/03/24 02:35:53;;;;;;;57.03;34.67;;;;;;;4.75;68.81;102832.22;5031474;28;20030;-56
2022/03/24 02:38:22;;;;;;;56.63;34.53;;;;;;;4.71;69.24;102831.50;5029824;28;20026;-56
2022/03/24 02:40:49;;;;;;;57.60;35.43;;;;;;;4.62;68.63;102832.78;5032406;28;20037;-57
2022/03/24 02:43:20;;;;;;;54.20;34.50;;;;;;;4.62;69.22;102826.69;5032175;28;20029;-56
2022/03/24 02:45:50;;;;;;;52.23;33.97;;;;;;;4.57;68.77;102835.66;5029867;28;20099;-56
2022/03/24 02:48:15;;;;;;;58.33;34.37;;;;;;;4.47;68.67;102834.38;5027036;28;20116;-56
2022/03/24 02:50:41;;;;;;;51.97;33.10;;;;;;;4.47;68.59;102838.75;5029337;28;20037;-56
2022/03/24 02:53:07;;;;;;;55.27;33.77;;;;;;;4.36;69.71;102827.00;5024948;28;20029;-56
2022/03/24 02:55:32;;;;;;;52.37;34.63;;;;;;;4.37;69.09;102823.44;5028640;28;20030;-57
2022/03/24 02:57:57;;;;;;;55.43;34.87;;;;;;;4.48;69.26;102824.72;5029313;28;20665;-56
2022/03/24 03:00:25;;;;;;;51.20;32.83;;;;;;;4.45;69.47;102830.97;5030823;28;20037;-57
2022/03/24 03:02:54;;;;;;;55.07;33.53;;;;;;;4.35;69.96;102830.56;5030685;28;20392;-58
2022/03/24 03:05:20;;;;;;;53.00;33.83;;;;;;;4.39;69.14;102823.38;5029454;28;20026;-57
2022/03/24 03:07:46;;;;;;;53.20;33.67;;;;;;;4.33;70.00;102824.50;5031968;28;20036;-56
2022/03/24 03:10:12;;;;;;;55.10;33.67;;;;;;;4.24;70.28;102827.56;5031270;28;20647;-57
2022/03/24 03:12:37;;;;;;;53.50;34.23;;;;;;;4.28;70.25;102829.09;5030705;28;20057;-56
2022/03/24 03:15:04;;;;;;;59.20;34.83;;;;;;;4.24;69.94;102827.56;5031323;28;20045;-56
2022/03/24 03:17:29;;;;;;;57.13;34.80;;;;;;;4.27;70.61;102833.53;5030299;28;20495;-57
2022/03/24 03:19:55;;;;;;;55.07;34.27;;;;;;;4.28;71.23;102835.22;5030211;28;20044;-56
2022/03/24 03:22:21;;;;;;;57.30;35.20;;;;;;;4.11;71.32;102838.63;5031434;28;20057;-56
2022/03/24 03:24:46;;;;;;;53.60;33.47;;;;;;;4.11;71.43;102822.88;5031388;28;20512;-56
2022/03/24 03:27:12;;;;;;;56.73;34.53;;;;;;;4.13;71.33;102831.53;5031116;28;20025;-56
2022/03/24 03:29:38;;;;;;;51.53;33.80;;;;;;;4.21;70.86;102832.94;5031511;28;20091;-57
2022/03/24 03:32:05;;;;;;;53.33;34.07;;;;;;;4.13;71.60;102825.41;5030766;28;20151;-55
2022/03/24 03:34:31;;;;;;;58.23;35.93;;;;;;;4.10;70.72;102828.19;5031095;28;20026;-57
2022/03/24 03:36:56;;;;;;;57.33;36.13;;;;;;;4.10;70.80;102826.41;5031476;28;20021;-56
2022/03/24 03:39:23;;;;;;;59.00;36.63;;;;;;;4.04;71.41;102831.94;5030252;28;20025;-57
2022/03/24 03:41:48;;;;;;;54.93;35.67;;;;;;;4.12;70.92;102832.47;5031922;28;20022;-56
2022/03/24 03:44:14;;;;;;;54.93;33.90;;;;;;;4.11;71.06;102835.13;5031103;28;20025;-57
2022/03/24 03:46:39;;;;;;;53.17;35.00;;;;;;;3.99;70.73;102828.69;5031071;28;20029;-56
2022/03/24 03:49:07;;;;;;;61.00;36.33;;;;;;;4.00;70.82;102830.38;5030031;28;20026;-55
2022/03/24 03:51:34;;;;;;;56.80;34.37;;;;;;;3.94;71.05;102831.50;5030735;28;20109;-57
2022/03/24 03:53:59;;;;;;;59.77;35.63;;;;;;;3.98;70.22;102832.22;5046704;28;20557;-56
2022/03/24 03:56:24;;;;;;;59.17;35.17;;;;;;;3.92;71.82;102827.22;5030366;28;20096;-58
2022/03/24 03:58:49;;;;;;;54.80;35.10;;;;;;;3.92;71.81;102832.47;5030849;28;20034;-54
2022/03/24 04:01:15;;;;;;;52.67;34.40;;;;;;;4.01;71.09;102832.09;5031087;28;20034;-56
2022/03/24 04:03:41;;;;;;;56.73;36.03;;;;;;;4.00;71.10;102825.97;5026415;28;20035;-56
2022/03/24 04:06:09;;;;;;;57.67;36.37;;;;;;;3.91;71.31;102831.66;5032083;28;20083;-56
2022/03/24 04:08:35;;;;;;;63.40;37.90;;;;;;;3.86;71.02;102834.44;5030558;28;20082;-56
2022/03/24 04:11:01;;;;;;;55.03;35.43;;;;;;;3.78;72.65;102847.06;5030196;28;20037;-56
2022/03/24 04:13:26;;;;;;;56.57;35.43;;;;;;;3.73;71.39;102833.28;5030692;28;20389;-56
2022/03/24 04:15:53;;;;;;;58.57;34.03;;;;;;;3.80;71.80;102833.88;5031256;28;20029;-55
2022/03/24 04:18:18;;;;;;;59.70;36.33;;;;;;;3.75;72.13;102836.72;5030671;28;20431;-54
2022/03/24 04:20:45;;;;;;;58.80;35.50;;;;;;;3.79;72.17;102840.06;5034754;28;20041;-56
2022/03/24 04:23:13;;;;;;;55.47;35.33;;;;;;;3.84;71.61;102833.69;5034470;28;20524;-57
2022/03/24 04:25:40;;;;;;;50.83;34.20;;;;;;;3.83;71.42;102833.75;5034877;28;20118;-57
2022/03/24 04:28:06;;;;;;;64.67;36.37;;;;;;;3.77;71.75;102834.88;5034230;28;20038;-57
2022/03/24 04:30:33;;;;;;;53.60;34.20;;;;;;;3.28;71.14;102843.06;5032677;28;20029;-57
2022/03/24 04:32:58;;;;;;;63.87;36.37;;;;;;;2.90;73.15;102833.22;5034532;28;20029;-57
2022/03/24 04:35:24;;;;;;;62.07;38.33;;;;;;;2.92;73.68;102834.88;5032168;28;20050;-57
2022/03/24 04:37:50;;;;;;;57.83;36.73;;;;;;;3.01;73.54;102831.03;5032765;28;20029;-57
2022/03/24 04:40:17;;;;;;;68.27;37.13;;;;;;;3.12;73.82;102833.22;5033651;28;20440;-57
2022/03/24 04:42:49;;;;;;;60.67;37.43;;;;;;;3.09;75.02;102833.34;5030812;28;20365;-57
2022/03/24 04:45:17;;;;;;;59.42;37.15;;;;;;;3.17;74.48;102833.91;5030472;28;20108;-57
2022/03/24 04:47:42;;;;;;;58.83;36.30;;;;;;;3.25;74.79;102830.09;5030670;28;20018;-57
2022/03/24 04:50:08;;;;;;;58.93;36.23;;;;;;;3.31;73.80;102833.28;5026872;28;20031;-57
2022/03/24 04:52:34;;;;;;;58.93;34.83;;;;;;;3.31;73.88;102833.28;5034349;28;20100;-56
2022/03/24 04:54:59;;;;;;;58.03;34.80;;;;;;;3.27;73.60;102834.34;5026280;28;20041;-57
2022/03/24 04:57:29;;;;;;;56.10;35.77;;;;;;;3.18;73.40;102837.34;5030742;28;20484;-57
2022/03/24 04:59:56;;;;;;;59.87;35.60;;;;;;;3.22;73.24;102833.69;5032898;28;20029;-57
2022/03/24 05:02:24;;;;;;;60.23;36.63;;;;;;;3.16;73.12;102833.94;5024978;28;21528;-58
2022/03/24 05:04:50;;;;;;;56.63;36.40;;;;;;;3.22;73.14;102838.94;5032860;28;20025;-57
2022/03/24 05:07:15;;;;;;;59.63;36.37;;;;;;;3.19;73.21;102837.28;5032145;28;20029;-57
2022/03/24 05:09:41;;;;;;;56.47;36.90;;;;;;;3.15;73.17;102840.13;5032199;28;20037;-57
2022/03/24 05:12:07;;;;;;;64.03;37.30;;;;;;;3.16;73.14;102836.56;5032993;28;20448;-57
2022/03/24 05:14:33;;;;;;;57.10;36.43;;;;;;;3.05;72.73;102842.22;5025809;28;20105;-57
2022/03/24 05:17:00;;;;;;;67.70;36.83;;;;;;;3.13;73.12;102839.31;5032334;28;20033;-57
2022/03/24 05:19:27;;;;;;;57.77;37.90;;;;;;;3.17;73.56;102840.91;5027715;28;20041;-58
2022/03/24 05:21:52;;;;;;;60.10;35.10;;;;;;;3.20;73.73;102848.63;5030917;28;20473;-57
2022/03/24 05:24:17;;;;;;;62.30;35.67;;;;;;;3.16;73.49;102844.44;5021577;28;20045;-57
2022/03/24 05:26:43;;;;;;;61.20;34.37;;;;;;;3.13;73.37;102839.31;5032307;28;20032;-57
2022/03/24 05:29:09;;;;;;;57.07;35.23;;;;;;;3.09;73.45;102849.06;5022375;28;20038;-57
2022/03/24 05:31:34;;;;;;;58.27;34.40;;;;;;;3.07;73.92;102846.50;5042915;28;20042;-58
2022/03/24 05:33:59;;;;;;;59.30;35.13;;;;;;;2.98;73.24;102846.88;5039415;28;20028;-57
2022/03/24 05:36:25;;;;;;;62.43;38.20;;;;;;;2.98;74.07;102856.50;5030527;28;20615;-57
2022/03/24 05:38:51;;;;;;;61.10;36.70;;;;;;;3.06;74.03;102855.28;5023268;28;20033;-57
2022/03/24 05:41:18;;;;;;;56.60;35.07;;;;;;;3.02;73.75;102853.72;5021967;28;20072;-57
2022/03/24 05:44:02;;;;;;;55.57;35.80;;;;;;;3.05;73.31;102858.81;5023169;28;20065;-57
2022/03/24 05:46:48;;;;;;;65.77;35.57;;;;;;;3.06;73.20;102857.91;5025595;28;20033;-57
2022/03/24 05:49:19;;;;;;;57.73;35.23;;;;;;;3.00;73.83;102854.69;5023490;28;20041;-57
2022/03/24 05:51:44;;;;;;;62.80;36.30;;;;;;;3.05;73.84;102853.59;5030836;28;20033;-57
2022/03/24 05:54:15;;;;;;;64.83;35.90;;;;;;;3.04;74.13;102867.59;5028727;28;20034;-57
2022/03/24 05:56:41;;;;;;;59.57;36.30;;;;;;;3.00;74.39;102866.03;5026562;28;20429;-56
2022/03/24 05:59:07;;;;;;;63.07;35.33;;;;;;;2.96;74.30;102867.91;5032212;28;20159;-57
2022/03/24 06:01:33;;;;;;;63.47;36.33;;;;;;;2.92;74.46;102863.69;5035402;28;20108;-57
2022/03/24 06:04:00;;;;;;;61.00;37.30;;;;;;;2.91;74.34;102855.91;5037826;28;20156;-57
2022/03/24 06:06:26;;;;;;;62.33;36.70;;;;;;;3.00;74.14;102870.44;5032371;28;20029;-57
2022/03/24 06:08:58;;;;;;;60.30;36.23;;;;;;;3.02;73.77;102865.97;5032642;28;20049;-57
2022/03/24 06:11:24;;;;;;;62.97;37.93;;;;;;;2.99;74.20;102868.69;5037434;28;20037;-56
2022/03/24 06:13:49;;;;;;;64.23;35.10;;;;;;;2.89;74.12;102878.69;5031999;28;20041;-55
2022/03/24 06:16:15;;;;;;;71.87;36.20;;;;;;;2.87;74.59;102870.03;5033827;28;20028;-58
2022/03/24 06:18:41;;;;;;;58.63;37.13;;;;;;;2.96;74.36;102874.91;5034452;28;20419;-56
2022/03/24 06:21:07;;;;;;;55.77;36.50;;;;;;;3.05;74.34;102874.56;5032587;28;20431;-57
2022/03/24 06:23:33;;;;;;;80.77;38.07;;;;;;;3.09;73.96;102868.28;5016462;28;20380;-57
2022/03/24 06:25:58;;;;;;;59.80;37.60;;;;;;;3.09;74.82;102886.63;5037565;28;20031;-56
2022/03/24 06:28:24;;;;;;;59.23;35.87;;;;;;;3.05;74.75;102874.56;5025420;28;20026;-57
2022/03/24 06:30:50;;;;;;;65.60;38.07;;;;;;;3.07;74.26;102875.34;5032808;28;20120;-57
2022/03/24 06:33:16;;;;;;;58.20;36.90;;;;;;;3.13;74.44;102870.75;5025375;28;20096;-56
2022/03/24 06:35:43;;;;;;;63.07;38.50;;;;;;;3.16;74.08;102876.72;5032696;28;20051;-57
2022/03/24 06:38:08;;;;;;;68.63;38.93;;;;;;;3.19;74.34;102876.63;5026655;28;20502;-57
2022/03/24 06:40:33;;;;;;;66.93;40.63;;;;;;;3.30;74.48;102884.03;5028707;28;20033;-57
2022/03/24 06:42:59;;;;;;;69.20;40.43;;;;;;;3.37;73.85;102879.41;5023629;28;20033;-57
2022/03/24 06:45:25;;;;;;;66.13;40.50;;;;;;;3.45;73.94;102873.84;5028944;28;20037;-58
2022/03/24 06:47:50;;;;;;;65.57;42.73;;;;;;;3.54;73.66;102873.44;5025376;28;20041;-57
2022/03/24 06:50:15;;;;;;;68.53;42.40;;;;;;;3.68;72.96;102877.25;5029261;28;20528;-57
2022/03/24 06:52:42;;;;;;;72.53;44.60;;;;;;;3.75;73.39;102878.72;5028953;28;20044;-57
2022/03/24 06:55:08;;;;;;;70.83;43.40;;;;;;;3.79;73.92;102882.88;5032059;28;20404;-57
2022/03/24 06:57:36;;;;;;;79.77;44.90;;;;;;;3.94;73.85;102877.91;5028745;28;20091;-57
2022/03/24 07:00:02;;;;;;;81.63;46.03;;;;;;;3.99;73.47;102887.28;5030612;28;20441;-59
2022/03/24 07:02:28;;;;;;;74.97;44.47;;;;;;;4.12;73.20;102882.34;5022126;28;20029;-58
2022/03/24 07:04:54;;;;;;;75.73;43.87;;;;;;;4.25;73.73;102879.16;5027357;28;20040;-57
2022/03/24 07:07:20;;;;;;;75.30;45.23;;;;;;;4.34;74.18;102880.53;5022045;28;20090;-58
2022/03/24 07:09:45;;;;;;;74.03;45.07;;;;;;;4.43;73.66;102880.94;5023348;28;20033;-59
2022/03/24 07:12:11;;;;;;;73.97;44.90;;;;;;;4.51;73.39;102882.38;5023015;28;20046;-58
2022/03/24 07:14:36;;;;;;;82.23;46.67;;;;;;;4.60;72.64;102881.97;5024132;28;20480;-59
2022/03/24 07:17:01;;;;;;;73.33;45.23;;;;;;;4.74;72.68;102883.06;5028625;28;20106;-59
2022/03/24 07:19:26;;;;;;;82.17;45.93;;;;;;;4.84;71.71;102885.19;5026943;28;20423;-58
2022/03/24 07:21:52;;;;;;;82.13;46.77;;;;;;;4.98;73.69;102887.16;5026619;28;20034;-58
2022/03/24 07:24:17;;;;;;;82.77;47.50;;;;;;;5.06;74.69;102893.81;5022777;28;20108;-59
2022/03/24 07:26:42;;;;;;;76.93;48.70;;;;;;;5.12;74.47;102893.53;5027059;28;20385;-58
2022/03/24 07:29:10;;;;;;;79.57;49.33;;;;;;;5.18;74.84;102893.22;5025764;28;20030;-57
2022/03/24 07:31:36;;;;;;;79.07;49.33;;;;;;;5.30;74.17;102897.03;5029760;28;20128;-55
2022/03/24 07:34:02;;;;;;;81.07;49.27;;;;;;;5.35;74.62;102888.91;5034143;28;20049;-55
2022/03/24 07:36:27;;;;;;;82.73;51.43;;;;;;;5.46;74.02;102891.88;5025273;28;20037;-54
2022/03/24 07:38:55;;;;;;;77.27;49.97;;;;;;;5.55;74.26;102890.56;5030966;28;20029;-53
2022/03/24 07:41:21;;;;;;;88.27;50.97;;;;;;;5.67;72.51;102889.06;5027188;28;20033;-53
2022/03/24 07:43:47;;;;;;;79.05;49.67;;;;;;;5.77;72.46;102890.31;5026262;28;20029;-55
2022/03/24 07:46:12;;;;;;;75.40;47.08;;;;;;;5.92;71.68;102890.44;5025053;28;20029;-53
2022/03/24 07:48:38;;;;;;;71.47;46.50;;;;;;;6.00;70.62;102890.91;5032093;28;20112;-54
2022/03/24 07:51:05;;;;;;;78.30;46.38;;;;;;;6.15;70.42;102898.94;5025412;28;20048;-54
2022/03/24 07:53:48;;;;;;;65.88;43.38;;;;;;;6.24;69.31;102897.59;5019643;28;20080;-54
2022/03/24 07:56:27;;;;;;;69.15;43.22;;;;;;;6.33;68.45;102897.97;5031926;28;20079;-55
2022/03/24 07:58:53;;;;;;;68.88;43.22;;;;;;;6.53;70.37;102898.69;5028645;28;20451;-54
2022/03/24 08:01:27;;;;;;;64.03;41.83;;;;;;;6.61;69.58;102894.78;5032362;28;20377;-55
2022/03/24 08:03:54;;;;;;;63.40;41.25;;;;;;;6.78;68.30;102894.69;5029773;28;20049;-55
2022/03/24 08:06:21;;;;;;;64.07;41.50;;;;;;;6.88;68.69;102897.66;5027711;28;20083;-56
2022/03/24 08:08:46;;;;;;;68.00;41.05;;;;;;;6.97;66.55;102904.19;5034461;28;20021;-54
2022/03/24 08:11:11;;;;;;;65.97;39.78;;;;;;;7.11;66.34;102904.25;5023403;28;20497;-56
2022/03/24 08:13:37;;;;;;;63.15;40.63;;;;;;;7.19;67.30;102906.47;5026232;28;20064;-53
2022/03/24 08:16:03;;;;;;;59.38;40.88;;;;;;;7.34;66.15;102902.09;5030860;28;20057;-54
2022/03/24 08:18:28;;;;;;;69.80;42.58;;;;;;;7.51;65.62;102901.09;5026987;28;20392;-53
2022/03/24 08:20:53;;;;;;;61.72;39.58;;;;;;;7.63;63.52;102904.81;5031569;28;20038;-55
2022/03/24 08:23:19;;;;;;;60.03;40.50;;;;;;;7.71;64.18;102908.78;5030530;28;20037;-54
2022/03/24 08:25:45;;;;;;;61.22;39.15;;;;;;;7.81;63.60;102912.59;5034179;28;20047;-53
2022/03/24 08:28:12;;;;;;;62.90;39.53;;;;;;;7.91;62.93;102908.44;5031541;28;20132;-56
2022/03/24 08:30:38;;;;;;;59.05;39.13;;;;;;;7.99;62.95;102907.97;5016357;28;20034;-55
2022/03/24 08:33:04;;;;;;;62.47;39.60;;;;;;;8.09;63.54;102905.59;5035182;28;20440;-54
2022/03/24 08:35:29;;;;;;;62.10;41.30;;;;;;;8.21;64.62;102910.13;5033758;28;20083;-54
2022/03/24 08:37:55;;;;;;;64.45;41.05;;;;;;;8.37;65.71;102909.19;5034117;28;20488;-55
2022/03/24 08:40:21;;;;;;;58.30;38.97;;;;;;;8.50;62.87;102911.94;5035419;28;20034;-60
2022/03/24 08:42:47;;;;;;;58.35;39.97;;;;;;;8.61;62.79;102906.00;5031812;28;20029;-58
2022/03/24 08:45:13;;;;;;;60.90;40.08;;;;;;;8.81;62.09;102911.78;5026845;28;20031;-60
2022/03/24 08:47:40;;;;;;;59.85;38.20;;;;;;;8.91;58.52;102912.91;5030018;28;20075;-57
2022/03/24 08:50:07;;;;;;;58.35;37.78;;;;;;;9.05;58.12;102903.22;5032022;28;20029;-57
2022/03/24 08:52:33;;;;;;;53.28;37.13;;;;;;;9.19;56.17;102910.25;5032313;28;20053;-59
2022/03/24 08:54:58;;;;;;;50.47;33.53;;;;;;;9.40;50.74;102910.63;5030559;28;20041;-56
2022/03/24 08:57:27;;;;;;;54.15;36.63;;;;;;;9.60;51.71;102924.31;5033635;28;20026;-58
2022/03/24 09:00:00;;;;;;;53.92;33.53;;;;;;;9.68;50.28;102911.44;5032125;28;20026;-58
2022/03/24 09:02:25;;;;;;;45.38;32.15;;;;;;;9.74;49.88;102911.00;5031592;28;20053;-58
2022/03/24 09:04:50;;;;;;;45.13;31.83;;;;;;;9.95;48.71;102913.97;5028170;28;20029;-58
2022/03/24 09:07:16;;;;;;;50.33;33.05;;;;;;;10.06;47.86;102915.88;5033788;28;20033;-58
2022/03/24 09:09:42;;;;;;;46.65;32.15;;;;;;;10.15;46.82;102918.84;5028948;28;20029;-58
2022/03/24 09:12:11;;;;;;;49.90;34.17;;;;;;;10.20;49.73;102924.66;5031138;28;20034;-58
2022/03/24 09:14:39;;;;;;;48.92;33.00;;;;;;;10.31;50.96;102922.13;5029932;28;20033;-57
2022/03/24 09:17:05;;;;;;;41.70;28.95;;;;;;;10.55;44.95;102926.66;5031213;28;20045;-57
2022/03/24 09:19:32;;;;;;;44.60;30.75;;;;;;;10.73;44.86;102915.69;5026880;28;20026;-58
2022/03/24 09:21:59;;;;;;;46.90;32.15;;;;;;;10.83;46.06;102919.38;5027831;28;20472;-58
2022/03/24 09:24:24;;;;;;;44.75;31.48;;;;;;;10.89;45.42;102929.53;5033316;28;20030;-58
2022/03/24 09:26:50;;;;;;;43.72;30.80;;;;;;;10.98;45.35;102932.47;5032689;28;20028;-57
2022/03/24 09:29:15;;;;;;;44.50;31.33;;;;;;;11.06;44.78;102924.81;5031173;28;20027;-58
2022/03/24 09:31:43;;;;;;;42.92;28.42;;;;;;;11.19;42.59;102929.22;5033451;28;20555;-58
2022/03/24 09:34:09;;;;;;;37.40;26.95;;;;;;;11.37;40.58;102922.53;5029649;28;20032;-57
2022/03/24 09:36:35;;;;;;;44.67;26.90;;;;;;;11.46;41.00;102925.44;5032236;28;20018;-58
2022/03/24 09:39:01;;;;;;;40.40;27.10;;;;;;;11.61;41.10;102926.06;5035203;28;20030;-58
2022/03/24 09:41:27;;;;;;;42.83;27.23;;;;;;;11.75;42.40;102919.72;5022183;28;20504;-58
2022/03/24 09:43:53;;;;;;;41.33;27.52;;;;;;;11.88;40.26;102931.09;5038647;28;20034;-58
2022/03/24 09:46:20;;;;;;;42.55;29.23;;;;;;;11.89;40.37;102921.31;5030984;28;20365;-57
2022/03/24 09:48:45;;;;;;;42.17;27.95;;;;;;;11.98;40.09;102923.25;5033121;28;20033;-59
2022/03/24 09:51:11;;;;;;;40.17;27.67;;;;;;;12.31;37.92;102928.72;5038272;28;20041;-57
2022/03/24 09:53:39;;;;;;;39.08;27.52;;;;;;;12.49;35.70;102919.28;5029158;28;20017;-58
2022/03/24 09:56:05;;;;;;;34.45;24.65;;;;;;;12.73;35.52;102915.59;5030359;28;20033;-58
2022/03/24 09:58:30;;;;;;;38.72;28.05;;;;;;;12.95;36.26;102923.66;5030069;28;20029;-58
2022/03/24 10:00:55;;;;;;;36.47;25.20;;;;;;;13.02;36.34;102917.69;5029728;28;20032;-58
2022/03/24 10:03:22;;;;;;;33.65;23.33;;;;;;;12.98;32.66;102923.41;5024989;28;20111;-58
2022/03/24 10:05:53;;;;;;;38.70;24.65;;;;;;;13.05;34.13;102917.47;5026139;28;20034;-58
2022/03/24 10:08:18;;;;;;;32.22;23.10;;;;;;;13.04;34.06;102922.91;5020049;28;20036;-58
2022/03/24 10:10:44;;;;;;;37.45;26.02;;;;;;;13.21;36.78;102924.16;5021563;28;20611;-58
2022/03/24 10:13:09;;;;;;;35.53;24.75;;;;;;;13.08;34.07;102912.84;5026557;28;20052;-59
2022/03/24 10:15:37;;;;;;;29.95;21.52;;;;;;;13.11;31.99;102912.56;5030041;28;20058;-58
2022/03/24 10:18:02;;;;;;;30.92;21.38;;;;;;;13.13;30.85;102915.97;5031626;28;20064;-58
2022/03/24 10:20:29;;;;;;;30.77;22.08;;;;;;;13.16;31.81;102913.91;5034961;28;20513;-58
2022/03/24 10:23:05;;;;;;;31.95;22.55;;;;;;;13.35;31.95;102908.84;5034042;28;20074;-59
2022/03/24 10:25:33;;;;;;;33.70;22.60;;;;;;;13.36;32.45;102905.22;5021395;28;20038;-58
2022/03/24 10:28:08;;;;;;;32.72;22.75;;;;;;;13.29;32.77;102902.22;5036413;28;20037;-58
2022/03/24 10:30:50;;;;;;;34.03;22.85;;;;;;;13.38;32.89;102904.09;5030284;28;20033;-58
2022/03/24 10:33:39;;;;;;;33.00;22.65;;;;;;;13.45;32.34;102894.63;5025122;28;20090;-58
2022/03/24 10:36:15;;;;;;;34.28;22.70;;;;;;;13.53;33.26;102901.16;5025721;28;20045;-58
2022/03/24 10:38:48;;;;;;;34.55;23.65;;;;;;;13.71;31.81;102912.03;5028386;28;20412;-58
2022/03/24 10:41:25;;;;;;;30.85;21.52;;;;;;;13.62;30.20;102888.84;5029363;28;20037;-57
2022/03/24 10:43:53;;;;;;;32.72;22.73;;;;;;;13.79;30.89;102903.41;5030992;28;20120;-58
2022/03/24 10:46:23;;;;;;;33.60;24.67;;;;;;;13.74;30.98;102903.81;5029029;28;20040;-59
2022/03/24 10:48:50;;;;;;;33.80;23.17;;;;;;;13.77;31.22;102892.84;5028082;28;20120;-57
2022/03/24 10:51:25;;;;;;;28.65;21.27;;;;;;;13.84;32.69;102903.84;5017865;28;20041;-58
2022/03/24 10:53:51;;;;;;;35.72;21.20;;;;;;;13.81;30.34;102898.78;5023737;28;20045;-57
2022/03/24 10:56:27;;;;;;;31.23;22.30;;;;;;;13.79;31.37;102896.25;5019374;28;20038;-59
2022/03/24 10:58:56;;;;;;;31.10;22.92;;;;;;;13.89;31.58;102893.63;5037408;28;20033;-58
2022/03/24 11:01:22;;;;;;;31.02;21.58;;;;;;;13.80;30.40;102897.94;5033047;28;20029;-58
2022/03/24 11:03:49;;;;;;;28.98;20.17;;;;;;;13.87;30.82;102900.06;5026993;28;20036;-57
2022/03/24 11:06:19;;;;;;;31.60;20.67;;;;;;;13.81;30.19;102894.28;5028526;28;20045;-58
2022/03/24 11:08:51;;;;;;;31.77;21.38;;;;;;;13.98;30.36;102900.00;5028832;28;20040;-60
2022/03/24 11:11:17;;;;;;;30.23;20.15;;;;;;;14.04;30.61;102899.47;5024540;28;20033;-60
2022/03/24 11:14:04;;;;;;;31.80;20.30;;;;;;;14.08;31.19;102895.56;5026071;28;20523;-60
2022/03/24 11:16:32;;;;;;;30.33;21.85;;;;;;;14.23;29.95;102887.16;5020891;28;20079;-59